sensor_id;sensor_type;location;lat;lon;timestamp;P1;durP1;ratioP1;P2;durP2;ratioP2
9536;SDS011;4807;48.024;11.726;2023-02-01T00:01:39;1.50;;;1.20;;
9536;SDS011;4807;48.024;11.726;2023-02-01T00:04:49;3.07;;;1.33;;
9536;SDS011;4807;48.024;11.726;2023-02-01T00:07:57;1.17;;;1.00;;
9536;SDS011;4807;48.024;11.726;2023-02-01T00:11:07;1.50;;;1.10;;
9536;SDS011;4807;48.024;11.726;2023-02-01T00:14:17;1.67;;;1.30;;
9536;SDS011;4807;48.024;11.726;2023-02-01T00:17:26;3.40;;;1.30;;
9536;SDS011;4807;48.024;11.726;2023-02-01T00:20:36;2.57;;;1.20;;
9536;SDS011;4807;48.024;11.726;2023-02-01T00:23:44;1.60;;;1.03;;
9536;SDS011;4807;48.024;11.726;2023-02-01T00:26:53;1.97;;;1.17;;
9536;SDS011;4807;48.024;11.726;2023-02-01T00:30:02;1.97;;;1.00;;
9536;SDS011;4807;48.024;11.726;2023-02-01T00:33:11;1.20;;;1.07;;
9536;SDS011;4807;48.024;11.726;2023-02-01T00:36:21;1.10;;;1.00;;
9536;SDS011;4807;48.024;11.726;2023-02-01T00:39:29;2.13;;;1.13;;
9536;SDS011;4807;48.024;11.726;2023-02-01T00:42:38;0.97;;;0.83;;
9536;SDS011;4807;48.024;11.726;2023-02-01T00:45:46;2.80;;;1.40;;
9536;SDS011;4807;48.024;11.726;2023-02-01T00:48:55;1.47;;;0.97;;
9536;SDS011;4807;48.024;11.726;2023-02-01T00:52:06;1.27;;;1.00;;
9536;SDS011;4807;48.024;11.726;2023-02-01T00:55:15;1.20;;;1.10;;
9536;SDS011;4807;48.024;11.726;2023-02-01T00:58:23;2.77;;;1.40;;
9536;SDS011;4807;48.024;11.726;2023-02-01T01:01:32;1.37;;;1.20;;
9536;SDS011;4807;48.024;11.726;2023-02-01T01:04:40;1.70;;;0.83;;
9536;SDS011;4807;48.024;11.726;2023-02-01T01:07:50;1.37;;;1.00;;
9536;SDS011;4807;48.024;11.726;2023-02-01T01:11:03;1.53;;;1.00;;
9536;SDS011;4807;48.024;11.726;2023-02-01T01:14:13;2.80;;;1.10;;
9536;SDS011;4807;48.024;11.726;2023-02-01T01:17:21;2.07;;;1.17;;
9536;SDS011;4807;48.024;11.726;2023-02-01T01:20:29;2.40;;;1.20;;
9536;SDS011;4807;48.024;11.726;2023-02-01T01:23:40;1.97;;;1.30;;
9536;SDS011;4807;48.024;11.726;2023-02-01T01:26:49;1.30;;;1.20;;
9536;SDS011;4807;48.024;11.726;2023-02-01T01:29:57;1.80;;;1.40;;
9536;SDS011;4807;48.024;11.726;2023-02-01T01:33:06;2.53;;;1.60;;
9536;SDS011;4807;48.024;11.726;2023-02-01T01:36:14;1.70;;;1.30;;
9536;SDS011;4807;48.024;11.726;2023-02-01T01:39:25;2.97;;;1.50;;
9536;SDS011;4807;48.024;11.726;2023-02-01T01:42:36;4.43;;;1.40;;
9536;SDS011;4807;48.024;11.726;2023-02-01T01:45:46;2.03;;;1.60;;
9536;SDS011;4807;48.024;11.726;2023-02-01T01:49:02;1.87;;;1.50;;
9536;SDS011;4807;48.024;11.726;2023-02-01T01:52:16;4.93;;;2.50;;
9536;SDS011;4807;48.024;11.726;2023-02-01T01:55:28;3.13;;;1.97;;
9536;SDS011;4807;48.024;11.726;2023-02-01T01:58:41;2.87;;;2.07;;
9536;SDS011;4807;48.024;11.726;2023-02-01T02:01:50;2.33;;;1.77;;
9536;SDS011;4807;48.024;11.726;2023-02-01T02:05:00;2.50;;;1.97;;
9536;SDS011;4807;48.024;11.726;2023-02-01T02:08:08;3.57;;;2.03;;
9536;SDS011;4807;48.024;11.726;2023-02-01T02:11:19;2.00;;;1.50;;
9536;SDS011;4807;48.024;11.726;2023-02-01T02:14:27;2.90;;;1.93;;
9536;SDS011;4807;48.024;11.726;2023-02-01T02:17:39;3.47;;;1.83;;
9536;SDS011;4807;48.024;11.726;2023-02-01T02:24:43;1.93;;;1.30;;
9536;SDS011;4807;48.024;11.726;2023-02-01T02:28:26;2.77;;;2.07;;
9536;SDS011;4807;48.024;11.726;2023-02-01T02:36:23;2.67;;;1.80;;
9536;SDS011;4807;48.024;11.726;2023-02-01T02:39:47;1.83;;;1.53;;
9536;SDS011;4807;48.024;11.726;2023-02-01T02:43:08;2.13;;;1.40;;
9536;SDS011;4807;48.024;11.726;2023-02-01T02:46:46;4.00;;;1.80;;
9536;SDS011;4807;48.024;11.726;2023-02-01T02:50:17;3.23;;;1.60;;
9536;SDS011;4807;48.024;11.726;2023-02-01T02:53:57;2.83;;;1.90;;
9536;SDS011;4807;48.024;11.726;2023-02-01T02:57:31;3.23;;;1.80;;
9536;SDS011;4807;48.024;11.726;2023-02-01T03:01:04;1.70;;;1.60;;
9536;SDS011;4807;48.024;11.726;2023-02-01T03:04:30;2.20;;;1.73;;
9536;SDS011;4807;48.024;11.726;2023-02-01T03:11:12;2.27;;;1.90;;
9536;SDS011;4807;48.024;11.726;2023-02-01T03:14:23;3.93;;;1.83;;
9536;SDS011;4807;48.024;11.726;2023-02-01T03:17:39;4.23;;;1.90;;
9536;SDS011;4807;48.024;11.726;2023-02-01T03:20:50;2.57;;;1.77;;
9536;SDS011;4807;48.024;11.726;2023-02-01T03:24:04;3.00;;;1.90;;
9536;SDS011;4807;48.024;11.726;2023-02-01T03:27:30;2.13;;;1.67;;
9536;SDS011;4807;48.024;11.726;2023-02-01T03:30:50;3.77;;;2.00;;
9536;SDS011;4807;48.024;11.726;2023-02-01T03:33:59;1.77;;;1.53;;
9536;SDS011;4807;48.024;11.726;2023-02-01T03:37:09;1.90;;;1.70;;
9536;SDS011;4807;48.024;11.726;2023-02-01T03:40:24;2.73;;;2.17;;
9536;SDS011;4807;48.024;11.726;2023-02-01T03:43:38;2.50;;;1.70;;
9536;SDS011;4807;48.024;11.726;2023-02-01T03:46:58;2.07;;;1.53;;
9536;SDS011;4807;48.024;11.726;2023-02-01T03:50:14;3.10;;;1.70;;
9536;SDS011;4807;48.024;11.726;2023-02-01T03:53:27;1.47;;;1.23;;
9536;SDS011;4807;48.024;11.726;2023-02-01T03:56:38;2.37;;;1.83;;
9536;SDS011;4807;48.024;11.726;2023-02-01T03:59:54;2.23;;;1.67;;
9536;SDS011;4807;48.024;11.726;2023-02-01T04:03:19;3.47;;;1.87;;
9536;SDS011;4807;48.024;11.726;2023-02-01T04:06:28;4.00;;;1.67;;
9536;SDS011;4807;48.024;11.726;2023-02-01T04:09:40;2.83;;;1.70;;
9536;SDS011;4807;48.024;11.726;2023-02-01T04:12:49;1.67;;;1.57;;
9536;SDS011;4807;48.024;11.726;2023-02-01T04:15:59;2.07;;;1.67;;
9536;SDS011;4807;48.024;11.726;2023-02-01T04:19:07;3.10;;;2.07;;
9536;SDS011;4807;48.024;11.726;2023-02-01T04:22:17;2.53;;;1.47;;
9536;SDS011;4807;48.024;11.726;2023-02-01T04:25:26;2.30;;;1.60;;
9536;SDS011;4807;48.024;11.726;2023-02-01T04:28:34;3.70;;;1.43;;
9536;SDS011;4807;48.024;11.726;2023-02-01T04:31:44;3.53;;;1.70;;
9536;SDS011;4807;48.024;11.726;2023-02-01T04:34:52;3.93;;;2.13;;
9536;SDS011;4807;48.024;11.726;2023-02-01T04:38:01;2.23;;;1.80;;
9536;SDS011;4807;48.024;11.726;2023-02-01T04:41:09;1.70;;;1.60;;
9536;SDS011;4807;48.024;11.726;2023-02-01T04:44:18;2.13;;;1.97;;
9536;SDS011;4807;48.024;11.726;2023-02-01T04:47:28;3.33;;;1.80;;
9536;SDS011;4807;48.024;11.726;2023-02-01T04:50:36;2.13;;;1.93;;
9536;SDS011;4807;48.024;11.726;2023-02-01T04:53:45;1.67;;;1.43;;
9536;SDS011;4807;48.024;11.726;2023-02-01T04:56:53;1.83;;;1.70;;
9536;SDS011;4807;48.024;11.726;2023-02-01T05:00:02;2.27;;;1.90;;
9536;SDS011;4807;48.024;11.726;2023-02-01T05:03:13;2.37;;;1.40;;
9536;SDS011;4807;48.024;11.726;2023-02-01T05:06:21;2.60;;;1.73;;
9536;SDS011;4807;48.024;11.726;2023-02-01T05:09:30;3.73;;;2.27;;
9536;SDS011;4807;48.024;11.726;2023-02-01T05:12:39;2.93;;;1.73;;
9536;SDS011;4807;48.024;11.726;2023-02-01T05:16:05;3.37;;;1.60;;
9536;SDS011;4807;48.024;11.726;2023-02-01T05:19:15;3.17;;;1.80;;
9536;SDS011;4807;48.024;11.726;2023-02-01T05:22:24;4.57;;;1.70;;
9536;SDS011;4807;48.024;11.726;2023-02-01T05:25:32;3.67;;;1.90;;
9536;SDS011;4807;48.024;11.726;2023-02-01T05:28:40;4.43;;;1.97;;
9536;SDS011;4807;48.024;11.726;2023-02-01T05:31:48;2.30;;;2.07;;
9536;SDS011;4807;48.024;11.726;2023-02-01T05:34:58;5.17;;;2.60;;
9536;SDS011;4807;48.024;11.726;2023-02-01T05:38:07;4.13;;;1.83;;
9536;SDS011;4807;48.024;11.726;2023-02-01T05:41:15;2.57;;;2.00;;
9536;SDS011;4807;48.024;11.726;2023-02-01T05:44:23;3.43;;;2.77;;
9536;SDS011;4807;48.024;11.726;2023-02-01T05:47:32;3.87;;;2.27;;
9536;SDS011;4807;48.024;11.726;2023-02-01T05:50:42;2.30;;;2.10;;
9536;SDS011;4807;48.024;11.726;2023-02-01T05:53:51;2.53;;;1.70;;
9536;SDS011;4807;48.024;11.726;2023-02-01T05:57:00;4.23;;;2.63;;
9536;SDS011;4807;48.024;11.726;2023-02-01T06:00:10;4.80;;;2.60;;
9536;SDS011;4807;48.024;11.726;2023-02-01T06:03:20;2.77;;;2.33;;
9536;SDS011;4807;48.024;11.726;2023-02-01T06:06:30;3.07;;;2.43;;
9536;SDS011;4807;48.024;11.726;2023-02-01T06:09:39;3.87;;;2.40;;
9536;SDS011;4807;48.024;11.726;2023-02-01T06:12:48;4.53;;;2.53;;
9536;SDS011;4807;48.024;11.726;2023-02-01T06:15:57;5.93;;;3.00;;
9536;SDS011;4807;48.024;11.726;2023-02-01T06:19:05;2.50;;;2.20;;
9536;SDS011;4807;48.024;11.726;2023-02-01T06:22:16;5.03;;;2.80;;
9536;SDS011;4807;48.024;11.726;2023-02-01T06:25:24;2.37;;;2.17;;
9536;SDS011;4807;48.024;11.726;2023-02-01T06:28:33;4.03;;;2.50;;
9536;SDS011;4807;48.024;11.726;2023-02-01T06:31:42;3.43;;;2.70;;
9536;SDS011;4807;48.024;11.726;2023-02-01T06:34:50;2.73;;;2.00;;
9536;SDS011;4807;48.024;11.726;2023-02-01T06:38:01;2.57;;;2.03;;
9536;SDS011;4807;48.024;11.726;2023-02-01T06:41:09;3.50;;;2.47;;
9536;SDS011;4807;48.024;11.726;2023-02-01T06:44:18;3.00;;;2.47;;
9536;SDS011;4807;48.024;11.726;2023-02-01T06:47:27;2.97;;;2.60;;
9536;SDS011;4807;48.024;11.726;2023-02-01T06:50:35;3.07;;;2.40;;
9536;SDS011;4807;48.024;11.726;2023-02-01T06:53:45;3.60;;;2.30;;
9536;SDS011;4807;48.024;11.726;2023-02-01T06:56:53;2.30;;;1.87;;
9536;SDS011;4807;48.024;11.726;2023-02-01T07:00:02;3.90;;;2.07;;
9536;SDS011;4807;48.024;11.726;2023-02-01T07:03:12;2.93;;;2.50;;
9536;SDS011;4807;48.024;11.726;2023-02-01T07:06:20;2.40;;;2.10;;
9536;SDS011;4807;48.024;11.726;2023-02-01T07:09:30;3.90;;;2.30;;
9536;SDS011;4807;48.024;11.726;2023-02-01T07:12:39;2.40;;;1.80;;
9536;SDS011;4807;48.024;11.726;2023-02-01T07:15:47;3.13;;;2.40;;
9536;SDS011;4807;48.024;11.726;2023-02-01T07:18:56;2.97;;;2.07;;
9536;SDS011;4807;48.024;11.726;2023-02-01T07:22:05;2.50;;;1.70;;
9536;SDS011;4807;48.024;11.726;2023-02-01T07:25:15;3.13;;;2.30;;
9536;SDS011;4807;48.024;11.726;2023-02-01T07:28:24;2.80;;;2.30;;
9536;SDS011;4807;48.024;11.726;2023-02-01T07:31:34;2.20;;;1.83;;
9536;SDS011;4807;48.024;11.726;2023-02-01T07:34:42;2.40;;;1.60;;
9536;SDS011;4807;48.024;11.726;2023-02-01T07:37:51;1.70;;;1.60;;
9536;SDS011;4807;48.024;11.726;2023-02-01T07:41:01;2.83;;;2.03;;
9536;SDS011;4807;48.024;11.726;2023-02-01T07:44:12;2.57;;;1.73;;
9536;SDS011;4807;48.024;11.726;2023-02-01T07:47:20;2.87;;;1.87;;
9536;SDS011;4807;48.024;11.726;2023-02-01T07:50:28;3.57;;;1.60;;
9536;SDS011;4807;48.024;11.726;2023-02-01T07:53:38;3.13;;;1.90;;
9536;SDS011;4807;48.024;11.726;2023-02-01T07:56:48;1.77;;;1.50;;
9536;SDS011;4807;48.024;11.726;2023-02-01T07:59:56;4.33;;;1.83;;
9536;SDS011;4807;48.024;11.726;2023-02-01T08:03:22;3.63;;;1.67;;
9536;SDS011;4807;48.024;11.726;2023-02-01T08:06:31;4.23;;;1.73;;
9536;SDS011;4807;48.024;11.726;2023-02-01T08:09:41;2.10;;;1.67;;
9536;SDS011;4807;48.024;11.726;2023-02-01T08:12:51;1.80;;;1.70;;
9536;SDS011;4807;48.024;11.726;2023-02-01T08:16:06;3.03;;;2.03;;
9536;SDS011;4807;48.024;11.726;2023-02-01T08:19:17;2.03;;;1.70;;
9536;SDS011;4807;48.024;11.726;2023-02-01T08:22:25;3.33;;;1.87;;
9536;SDS011;4807;48.024;11.726;2023-02-01T08:25:38;2.83;;;1.70;;
9536;SDS011;4807;48.024;11.726;2023-02-01T08:28:49;2.27;;;1.70;;
9536;SDS011;4807;48.024;11.726;2023-02-01T08:32:00;3.73;;;2.27;;
9536;SDS011;4807;48.024;11.726;2023-02-01T08:35:09;3.83;;;2.50;;
9536;SDS011;4807;48.024;11.726;2023-02-01T08:38:17;3.23;;;2.00;;
9536;SDS011;4807;48.024;11.726;2023-02-01T08:41:26;3.97;;;2.43;;
9536;SDS011;4807;48.024;11.726;2023-02-01T08:44:38;4.23;;;2.77;;
9536;SDS011;4807;48.024;11.726;2023-02-01T08:47:47;3.00;;;1.90;;
9536;SDS011;4807;48.024;11.726;2023-02-01T08:50:55;4.90;;;2.30;;
9536;SDS011;4807;48.024;11.726;2023-02-01T08:54:04;5.60;;;2.43;;
9536;SDS011;4807;48.024;11.726;2023-02-01T08:57:13;6.43;;;3.90;;
9536;SDS011;4807;48.024;11.726;2023-02-01T09:00:23;9.10;;;2.83;;
9536;SDS011;4807;48.024;11.726;2023-02-01T09:03:33;1.70;;;1.60;;
9536;SDS011;4807;48.024;11.726;2023-02-01T09:06:41;3.10;;;1.60;;
9536;SDS011;4807;48.024;11.726;2023-02-01T09:09:51;3.23;;;2.10;;
9536;SDS011;4807;48.024;11.726;2023-02-01T09:13:00;4.90;;;2.20;;
9536;SDS011;4807;48.024;11.726;2023-02-01T09:16:10;3.40;;;1.93;;
9536;SDS011;4807;48.024;11.726;2023-02-01T09:19:19;3.17;;;1.40;;
9536;SDS011;4807;48.024;11.726;2023-02-01T09:22:32;4.53;;;2.57;;
9536;SDS011;4807;48.024;11.726;2023-02-01T09:25:40;1.00;;;1.00;;
9536;SDS011;4807;48.024;11.726;2023-02-01T09:28:49;2.70;;;1.93;;
9536;SDS011;4807;48.024;11.726;2023-02-01T09:31:58;3.07;;;2.20;;
9536;SDS011;4807;48.024;11.726;2023-02-01T09:35:09;3.40;;;2.50;;
9536;SDS011;4807;48.024;11.726;2023-02-01T09:38:17;2.57;;;1.97;;
9536;SDS011;4807;48.024;11.726;2023-02-01T09:41:30;2.43;;;2.17;;
9536;SDS011;4807;48.024;11.726;2023-02-01T09:44:58;4.83;;;1.60;;
9536;SDS011;4807;48.024;11.726;2023-02-01T09:48:28;1.47;;;1.23;;
9536;SDS011;4807;48.024;11.726;2023-02-01T09:51:42;1.80;;;1.20;;
9536;SDS011;4807;48.024;11.726;2023-02-01T09:54:57;2.97;;;1.73;;
9536;SDS011;4807;48.024;11.726;2023-02-01T09:58:12;1.47;;;1.27;;
9536;SDS011;4807;48.024;11.726;2023-02-01T10:01:27;1.73;;;1.07;;
9536;SDS011;4807;48.024;11.726;2023-02-01T10:04:38;2.07;;;1.67;;
9536;SDS011;4807;48.024;11.726;2023-02-01T10:07:47;1.43;;;1.20;;
9536;SDS011;4807;48.024;11.726;2023-02-01T10:11:13;1.70;;;1.50;;
9536;SDS011;4807;48.024;11.726;2023-02-01T10:14:43;2.33;;;1.20;;
9536;SDS011;4807;48.024;11.726;2023-02-01T10:18:10;1.87;;;1.10;;
9536;SDS011;4807;48.024;11.726;2023-02-01T10:21:46;1.97;;;1.03;;
9536;SDS011;4807;48.024;11.726;2023-02-01T10:25:04;2.33;;;1.10;;
9536;SDS011;4807;48.024;11.726;2023-02-01T10:28:26;1.20;;;1.10;;
9536;SDS011;4807;48.024;11.726;2023-02-01T10:31:35;4.40;;;1.90;;
9536;SDS011;4807;48.024;11.726;2023-02-01T10:34:46;6.20;;;2.27;;
9536;SDS011;4807;48.024;11.726;2023-02-01T10:38:05;5.27;;;1.30;;
9536;SDS011;4807;48.024;11.726;2023-02-01T10:41:35;2.57;;;1.20;;
9536;SDS011;4807;48.024;11.726;2023-02-01T10:44:47;1.13;;;1.03;;
9536;SDS011;4807;48.024;11.726;2023-02-01T10:47:57;2.30;;;1.13;;
9536;SDS011;4807;48.024;11.726;2023-02-01T10:51:10;2.00;;;1.10;;
9536;SDS011;4807;48.024;11.726;2023-02-01T10:54:32;4.23;;;1.20;;
9536;SDS011;4807;48.024;11.726;2023-02-01T10:57:48;3.27;;;1.33;;
9536;SDS011;4807;48.024;11.726;2023-02-01T11:01:06;2.37;;;1.50;;
9536;SDS011;4807;48.024;11.726;2023-02-01T11:04:16;5.60;;;1.70;;
9536;SDS011;4807;48.024;11.726;2023-02-01T11:07:28;4.10;;;1.67;;
9536;SDS011;4807;48.024;11.726;2023-02-01T11:10:40;8.10;;;3.27;;
9536;SDS011;4807;48.024;11.726;2023-02-01T11:13:54;3.47;;;1.83;;
9536;SDS011;4807;48.024;11.726;2023-02-01T11:17:24;3.90;;;1.30;;
9536;SDS011;4807;48.024;11.726;2023-02-01T11:20:38;2.40;;;1.20;;
9536;SDS011;4807;48.024;11.726;2023-02-01T11:23:48;2.37;;;1.57;;
9536;SDS011;4807;48.024;11.726;2023-02-01T11:26:59;3.70;;;1.83;;
9536;SDS011;4807;48.024;11.726;2023-02-01T11:30:15;1.17;;;0.93;;
9536;SDS011;4807;48.024;11.726;2023-02-01T11:33:32;2.23;;;1.50;;
9536;SDS011;4807;48.024;11.726;2023-02-01T11:36:46;2.67;;;1.70;;
9536;SDS011;4807;48.024;11.726;2023-02-01T11:39:58;2.23;;;1.37;;
9536;SDS011;4807;48.024;11.726;2023-02-01T11:43:12;2.30;;;1.27;;
9536;SDS011;4807;48.024;11.726;2023-02-01T11:46:30;1.70;;;1.50;;
9536;SDS011;4807;48.024;11.726;2023-02-01T11:49:40;3.03;;;1.90;;
9536;SDS011;4807;48.024;11.726;2023-02-01T11:52:55;2.00;;;1.43;;
9536;SDS011;4807;48.024;11.726;2023-02-01T11:56:24;2.57;;;2.00;;
9536;SDS011;4807;48.024;11.726;2023-02-01T11:59:49;3.27;;;2.33;;
9536;SDS011;4807;48.024;11.726;2023-02-01T12:03:27;5.37;;;1.90;;
9536;SDS011;4807;48.024;11.726;2023-02-01T12:06:59;2.13;;;1.20;;
9536;SDS011;4807;48.024;11.726;2023-02-01T12:10:24;1.70;;;1.20;;
9536;SDS011;4807;48.024;11.726;2023-02-01T12:13:47;1.20;;;1.10;;
9536;SDS011;4807;48.024;11.726;2023-02-01T12:17:15;1.70;;;1.53;;
9536;SDS011;4807;48.024;11.726;2023-02-01T12:21:04;1.57;;;1.17;;
9536;SDS011;4807;48.024;11.726;2023-02-01T12:24:43;5.50;;;2.07;;
9536;SDS011;4807;48.024;11.726;2023-02-01T12:32:09;2.73;;;1.33;;
9536;SDS011;4807;48.024;11.726;2023-02-01T12:35:38;3.40;;;1.90;;
9536;SDS011;4807;48.024;11.726;2023-02-01T12:39:02;5.97;;;1.80;;
9536;SDS011;4807;48.024;11.726;2023-02-01T12:42:25;1.10;;;1.10;;
9536;SDS011;4807;48.024;11.726;2023-02-01T12:45:39;3.10;;;1.30;;
9536;SDS011;4807;48.024;11.726;2023-02-01T12:48:56;5.83;;;2.00;;
9536;SDS011;4807;48.024;11.726;2023-02-01T12:52:12;5.17;;;1.40;;
9536;SDS011;4807;48.024;11.726;2023-02-01T12:55:28;2.37;;;1.40;;
9536;SDS011;4807;48.024;11.726;2023-02-01T12:58:47;3.03;;;1.20;;
9536;SDS011;4807;48.024;11.726;2023-02-01T13:02:03;4.20;;;1.60;;
9536;SDS011;4807;48.024;11.726;2023-02-01T13:05:27;1.70;;;1.07;;
9536;SDS011;4807;48.024;11.726;2023-02-01T13:08:43;1.50;;;0.80;;
9536;SDS011;4807;48.024;11.726;2023-02-01T13:12:00;1.40;;;1.30;;
9536;SDS011;4807;48.024;11.726;2023-02-01T13:15:21;3.50;;;1.20;;
9536;SDS011;4807;48.024;11.726;2023-02-01T13:18:36;1.50;;;1.40;;
9536;SDS011;4807;48.024;11.726;2023-02-01T13:21:53;2.90;;;1.60;;
9536;SDS011;4807;48.024;11.726;2023-02-01T13:25:11;2.17;;;1.30;;
9536;SDS011;4807;48.024;11.726;2023-02-01T13:28:37;2.83;;;1.97;;
9536;SDS011;4807;48.024;11.726;2023-02-01T13:32:05;2.67;;;1.50;;
9536;SDS011;4807;48.024;11.726;2023-02-01T13:35:56;2.77;;;1.57;;
9536;SDS011;4807;48.024;11.726;2023-02-01T13:43:16;3.90;;;1.50;;
9536;SDS011;4807;48.024;11.726;2023-02-01T13:46:37;3.50;;;1.20;;
9536;SDS011;4807;48.024;11.726;2023-02-01T13:49:49;1.90;;;1.30;;
9536;SDS011;4807;48.024;11.726;2023-02-01T13:53:03;1.53;;;1.20;;
9536;SDS011;4807;48.024;11.726;2023-02-01T13:56:28;3.07;;;1.30;;
9536;SDS011;4807;48.024;11.726;2023-02-01T13:59:50;2.83;;;2.47;;
9536;SDS011;4807;48.024;11.726;2023-02-01T14:03:02;3.77;;;2.07;;
9536;SDS011;4807;48.024;11.726;2023-02-01T14:09:52;1.30;;;1.07;;
9536;SDS011;4807;48.024;11.726;2023-02-01T14:13:11;3.00;;;1.53;;
9536;SDS011;4807;48.024;11.726;2023-02-01T14:16:29;3.37;;;1.87;;
9536;SDS011;4807;48.024;11.726;2023-02-01T14:19:37;2.03;;;1.93;;
9536;SDS011;4807;48.024;11.726;2023-02-01T14:22:46;2.13;;;1.50;;
9536;SDS011;4807;48.024;11.726;2023-02-01T14:26:06;2.97;;;2.43;;
9536;SDS011;4807;48.024;11.726;2023-02-01T14:29:31;2.47;;;1.20;;
9536;SDS011;4807;48.024;11.726;2023-02-01T14:32:42;1.20;;;1.10;;
9536;SDS011;4807;48.024;11.726;2023-02-01T14:35:55;1.30;;;1.20;;
9536;SDS011;4807;48.024;11.726;2023-02-01T14:39:26;1.27;;;1.10;;
9536;SDS011;4807;48.024;11.726;2023-02-01T14:42:43;0.97;;;0.87;;
9536;SDS011;4807;48.024;11.726;2023-02-01T14:45:56;3.53;;;1.17;;
9536;SDS011;4807;48.024;11.726;2023-02-01T14:49:05;2.77;;;1.17;;
9536;SDS011;4807;48.024;11.726;2023-02-01T14:52:16;1.70;;;1.17;;
9536;SDS011;4807;48.024;11.726;2023-02-01T14:55:30;4.13;;;0.90;;
9536;SDS011;4807;48.024;11.726;2023-02-01T14:58:47;2.03;;;0.93;;
9536;SDS011;4807;48.024;11.726;2023-02-01T15:02:15;2.70;;;1.10;;
9536;SDS011;4807;48.024;11.726;2023-02-01T15:05:31;2.40;;;1.10;;
9536;SDS011;4807;48.024;11.726;2023-02-01T15:08:41;1.97;;;0.80;;
9536;SDS011;4807;48.024;11.726;2023-02-01T15:11:53;1.17;;;0.83;;
9536;SDS011;4807;48.024;11.726;2023-02-01T15:15:11;1.57;;;1.00;;
9536;SDS011;4807;48.024;11.726;2023-02-01T15:18:25;0.70;;;0.70;;
9536;SDS011;4807;48.024;11.726;2023-02-01T15:21:37;5.07;;;1.10;;
9536;SDS011;4807;48.024;11.726;2023-02-01T15:24:55;1.17;;;0.70;;
9536;SDS011;4807;48.024;11.726;2023-02-01T15:28:09;2.27;;;0.90;;
9536;SDS011;4807;48.024;11.726;2023-02-01T15:31:32;1.77;;;0.80;;
9536;SDS011;4807;48.024;11.726;2023-02-01T15:34:45;4.30;;;0.90;;
9536;SDS011;4807;48.024;11.726;2023-02-01T15:41:46;4.67;;;0.97;;
9536;SDS011;4807;48.024;11.726;2023-02-01T15:44:59;2.50;;;1.00;;
9536;SDS011;4807;48.024;11.726;2023-02-01T15:48:11;1.47;;;0.90;;
9536;SDS011;4807;48.024;11.726;2023-02-01T15:51:31;2.73;;;1.23;;
9536;SDS011;4807;48.024;11.726;2023-02-01T15:54:41;2.13;;;1.13;;
9536;SDS011;4807;48.024;11.726;2023-02-01T15:57:56;3.43;;;1.20;;
9536;SDS011;4807;48.024;11.726;2023-02-01T16:01:05;2.97;;;1.40;;
9536;SDS011;4807;48.024;11.726;2023-02-01T16:04:20;1.40;;;1.20;;
9536;SDS011;4807;48.024;11.726;2023-02-01T16:07:33;2.80;;;1.33;;
9536;SDS011;4807;48.024;11.726;2023-02-01T16:10:42;1.50;;;1.20;;
9536;SDS011;4807;48.024;11.726;2023-02-01T16:13:54;3.10;;;1.30;;
9536;SDS011;4807;48.024;11.726;2023-02-01T16:17:02;1.87;;;1.43;;
9536;SDS011;4807;48.024;11.726;2023-02-01T16:20:11;3.97;;;1.43;;
9536;SDS011;4807;48.024;11.726;2023-02-01T16:23:21;1.10;;;1.00;;
9536;SDS011;4807;48.024;11.726;2023-02-01T16:26:30;3.67;;;1.37;;
9536;SDS011;4807;48.024;11.726;2023-02-01T16:29:39;4.33;;;1.00;;
9536;SDS011;4807;48.024;11.726;2023-02-01T16:32:48;4.50;;;2.07;;
9536;SDS011;4807;48.024;11.726;2023-02-01T16:36:01;8.87;;;3.67;;
9536;SDS011;4807;48.024;11.726;2023-02-01T16:39:12;7.37;;;4.57;;
9536;SDS011;4807;48.024;11.726;2023-02-01T16:42:21;2.47;;;1.17;;
9536;SDS011;4807;48.024;11.726;2023-02-01T16:45:31;13.00;;;4.53;;
9536;SDS011;4807;48.024;11.726;2023-02-01T16:48:40;8.43;;;4.43;;
9536;SDS011;4807;48.024;11.726;2023-02-01T16:51:57;20.27;;;8.07;;
9536;SDS011;4807;48.024;11.726;2023-02-01T16:55:09;12.13;;;5.70;;
9536;SDS011;4807;48.024;11.726;2023-02-01T16:58:21;12.70;;;5.20;;
9536;SDS011;4807;48.024;11.726;2023-02-01T17:01:29;6.20;;;2.27;;
9536;SDS011;4807;48.024;11.726;2023-02-01T17:04:38;2.93;;;1.37;;
9536;SDS011;4807;48.024;11.726;2023-02-01T17:07:47;9.23;;;2.60;;
9536;SDS011;4807;48.024;11.726;2023-02-01T17:10:57;2.53;;;1.03;;
9536;SDS011;4807;48.024;11.726;2023-02-01T17:14:13;3.87;;;1.00;;
9536;SDS011;4807;48.024;11.726;2023-02-01T17:17:25;3.87;;;0.77;;
9536;SDS011;4807;48.024;11.726;2023-02-01T17:20:44;1.63;;;1.00;;
9536;SDS011;4807;48.024;11.726;2023-02-01T17:23:54;2.20;;;1.00;;
9536;SDS011;4807;48.024;11.726;2023-02-01T17:27:05;1.37;;;0.70;;
9536;SDS011;4807;48.024;11.726;2023-02-01T17:30:14;5.07;;;1.47;;
9536;SDS011;4807;48.024;11.726;2023-02-01T17:33:25;4.63;;;1.97;;
9536;SDS011;4807;48.024;11.726;2023-02-01T17:36:41;6.93;;;2.30;;
9536;SDS011;4807;48.024;11.726;2023-02-01T17:39:51;4.47;;;1.27;;
9536;SDS011;4807;48.024;11.726;2023-02-01T17:43:03;2.03;;;1.50;;
9536;SDS011;4807;48.024;11.726;2023-02-01T17:46:12;2.87;;;1.10;;
9536;SDS011;4807;48.024;11.726;2023-02-01T17:49:24;1.30;;;1.10;;
9536;SDS011;4807;48.024;11.726;2023-02-01T17:52:34;3.50;;;1.97;;
9536;SDS011;4807;48.024;11.726;2023-02-01T17:55:43;4.30;;;1.00;;
9536;SDS011;4807;48.024;11.726;2023-02-01T17:58:54;4.93;;;1.80;;
9536;SDS011;4807;48.024;11.726;2023-02-01T18:02:07;5.47;;;1.40;;
9536;SDS011;4807;48.024;11.726;2023-02-01T18:05:26;2.20;;;0.90;;
9536;SDS011;4807;48.024;11.726;2023-02-01T18:08:44;3.53;;;0.93;;
9536;SDS011;4807;48.024;11.726;2023-02-01T18:11:53;7.03;;;1.50;;
9536;SDS011;4807;48.024;11.726;2023-02-01T18:15:09;4.37;;;1.20;;
9536;SDS011;4807;48.024;11.726;2023-02-01T18:18:24;3.43;;;0.90;;
9536;SDS011;4807;48.024;11.726;2023-02-01T18:21:35;3.07;;;0.90;;
9536;SDS011;4807;48.024;11.726;2023-02-01T18:24:49;2.83;;;1.00;;
9536;SDS011;4807;48.024;11.726;2023-02-01T18:27:58;4.50;;;1.10;;
9536;SDS011;4807;48.024;11.726;2023-02-01T18:31:10;5.83;;;0.83;;
9536;SDS011;4807;48.024;11.726;2023-02-01T18:34:28;1.63;;;0.93;;
9536;SDS011;4807;48.024;11.726;2023-02-01T18:37:37;1.70;;;0.80;;
9536;SDS011;4807;48.024;11.726;2023-02-01T18:40:47;2.70;;;0.80;;
9536;SDS011;4807;48.024;11.726;2023-02-01T18:43:59;2.83;;;1.00;;
9536;SDS011;4807;48.024;11.726;2023-02-01T18:47:08;3.60;;;1.00;;
9536;SDS011;4807;48.024;11.726;2023-02-01T18:50:17;2.97;;;0.83;;
9536;SDS011;4807;48.024;11.726;2023-02-01T18:53:26;6.27;;;2.27;;
9536;SDS011;4807;48.024;11.726;2023-02-01T18:56:35;3.87;;;1.47;;
9536;SDS011;4807;48.024;11.726;2023-02-01T18:59:43;2.27;;;1.20;;
9536;SDS011;4807;48.024;11.726;2023-02-01T19:02:53;7.43;;;2.70;;
9536;SDS011;4807;48.024;11.726;2023-02-01T19:06:02;7.10;;;2.17;;
9536;SDS011;4807;48.024;11.726;2023-02-01T19:09:11;14.87;;;5.60;;
9536;SDS011;4807;48.024;11.726;2023-02-01T19:12:19;16.80;;;6.63;;
9536;SDS011;4807;48.024;11.726;2023-02-01T19:15:28;6.73;;;1.57;;
9536;SDS011;4807;48.024;11.726;2023-02-01T19:18:40;1.83;;;1.17;;
9536;SDS011;4807;48.024;11.726;2023-02-01T19:21:49;3.63;;;1.10;;
9536;SDS011;4807;48.024;11.726;2023-02-01T19:25:00;3.37;;;1.47;;
9536;SDS011;4807;48.024;11.726;2023-02-01T19:28:08;6.33;;;3.00;;
9536;SDS011;4807;48.024;11.726;2023-02-01T19:31:17;6.27;;;2.00;;
9536;SDS011;4807;48.024;11.726;2023-02-01T19:34:27;7.73;;;1.37;;
9536;SDS011;4807;48.024;11.726;2023-02-01T19:37:35;3.77;;;1.30;;
9536;SDS011;4807;48.024;11.726;2023-02-01T19:40:47;6.53;;;2.87;;
9536;SDS011;4807;48.024;11.726;2023-02-01T19:43:56;10.67;;;2.00;;
9536;SDS011;4807;48.024;11.726;2023-02-01T19:47:04;2.30;;;1.10;;
9536;SDS011;4807;48.024;11.726;2023-02-01T19:50:16;4.10;;;1.30;;
9536;SDS011;4807;48.024;11.726;2023-02-01T19:53:27;2.90;;;0.80;;
9536;SDS011;4807;48.024;11.726;2023-02-01T19:56:36;2.10;;;0.93;;
9536;SDS011;4807;48.024;11.726;2023-02-01T19:59:45;4.87;;;1.33;;
9536;SDS011;4807;48.024;11.726;2023-02-01T20:02:53;7.07;;;1.37;;
9536;SDS011;4807;48.024;11.726;2023-02-01T20:06:04;3.67;;;1.13;;
9536;SDS011;4807;48.024;11.726;2023-02-01T20:09:13;2.30;;;0.97;;